Time;durP1;ratioP1;P1;durP2;ratioP2;P2;SDS_P1;SDS_P2;PMS_P1;PMS_P2;Temp;Humidity;BMP_temperature;BMP_pressure;BME280_temperature;BME280_humidity;BME280_pressure;Samples;Min_cycle;Max_cycle;Signal;HPM_P1;HPM_P2
2022/03/08 00:01:52;;;;;;;;;43.00;37.00;;;;;7.73;42.84;101479.97;5075945;27;45373;-79
2022/03/08 00:04:17;;;;;;;;;45.50;37.00;;;;;7.70;42.98;101469.44;5074424;27;45381;-78
2022/03/08 00:06:43;;;;;;;;;41.50;35.25;;;;;7.68;43.42;101468.44;5079280;27;45612;-78
2022/03/08 00:09:09;;;;;;;;;46.00;37.25;;;;;7.68;43.33;101463.28;5075769;27;45358;-79
2022/03/08 00:11:35;;;;;;;;;45.75;37.50;;;;;7.55;43.31;101444.44;5074757;28;45418;-79
2022/03/08 00:14:00;;;;;;;;;39.00;37.75;;;;;7.63;43.17;101465.56;5076391;27;45322;-78
2022/03/08 00:16:26;;;;;;;;;44.25;38.00;;;;;7.61;43.45;101459.44;5075634;27;45456;-79
2022/03/08 00:18:52;;;;;;;;;33.75;32.00;;;;;7.36;43.50;101420.78;5074543;27;45811;-79
2022/03/08 00:21:18;;;;;;;;;38.75;34.75;;;;;7.54;43.43;101463.28;5075758;27;45365;-78
2022/03/08 00:23:45;;;;;;;;;38.50;35.25;;;;;7.39;43.86;101445.09;5091806;27;45385;-78
2022/03/08 00:26:10;;;;;;;;;39.25;33.00;;;;;7.46;43.87;101458.38;5075080;28;45500;-78
2022/03/08 00:28:36;;;;;;;;;32.50;30.75;;;;;7.41;44.10;101442.59;5075598;28;45413;-78
2022/03/08 00:31:02;;;;;;;;;46.75;35.00;;;;;7.40;44.07;101451.13;5091678;27;45346;-79
2022/03/08 00:33:28;;;;;;;;;41.25;35.00;;;;;7.37;43.91;101451.81;5075717;28;45512;-79
2022/03/08 00:35:54;;;;;;;;;39.50;25.75;;;;;7.38;44.26;101460.44;5075807;27;45358;-79
2022/03/08 00:38:20;;;;;;;;;42.00;37.00;;;;;7.31;44.23;101447.94;5078861;27;45358;-78
2022/03/08 00:40:47;;;;;;;;;38.00;35.50;;;;;7.28;44.53;101459.81;5075708;27;45298;-78
2022/03/08 00:43:12;;;;;;;;;38.25;32.75;;;;;7.19;44.63;101455.69;5081343;27;45592;-79
2022/03/08 00:45:38;;;;;;;;;23.75;17.00;;;;;7.12;44.50;101465.56;5083664;27;47404;-79
2022/03/08 00:48:05;;;;;;;;;41.75;35.50;;;;;7.10;45.25;101462.00;5054753;28;45931;-79
2022/03/08 00:50:31;;;;;;;;;40.50;37.00;;;;;7.10;45.35;101459.41;5077479;27;45494;-79
2022/03/08 00:52:58;;;;;;;;;43.25;36.00;;;;;6.96;45.27;101449.88;5095649;27;45416;-79
2022/03/08 00:55:27;;;;;;;;;41.75;35.25;;;;;7.01;45.57;101458.78;5078566;27;45262;-78
2022/03/08 00:57:54;;;;;;;;;49.00;37.00;;;;;7.02;45.67;101458.00;5077272;28;45309;-79
2022/03/08 01:00:23;;;;;;;;;39.75;34.00;;;;;7.02;45.52;101452.84;5078381;27;45410;-79
2022/03/08 01:02:48;;;;;;;;;39.25;34.25;;;;;7.02;45.51;101451.97;5079166;27;45487;-79
2022/03/08 01:05:15;;;;;;;;;46.75;37.50;;;;;7.04;45.85;101459.00;5078299;27;46079;-78
2022/03/08 01:07:41;;;;;;;;;48.25;35.75;;;;;7.01;45.72;101453.63;5077311;28;45795;-78
2022/03/08 01:10:10;;;;;;;;;41.25;34.25;;;;;7.02;45.92;101442.56;5078630;27;45262;-79
2022/03/08 01:12:36;;;;;;;;;44.00;36.00;;;;;7.02;45.77;101445.13;5078724;27;45397;-78
2022/03/08 01:15:04;;;;;;;;;46.00;37.00;;;;;7.00;46.12;101450.97;5078445;28;46629;-79
2022/03/08 01:17:30;;;;;;;;;38.00;33.00;;;;;6.94;45.72;101447.16;5078703;27;45793;-78
2022/03/08 01:19:57;;;;;;;;;40.75;35.75;;;;;6.91;46.06;101439.22;5077384;28;45318;-78
2022/03/08 01:22:23;;;;;;;;;45.00;36.25;;;;;6.95;46.04;101445.50;5078465;27;45227;-78
2022/03/08 01:24:49;;;;;;;;;33.50;27.25;;;;;6.94;45.75;101446.28;5078287;28;45493;-78
2022/03/08 01:27:15;;;;;;;;;42.25;36.75;;;;;6.86;46.10;101434.56;5078058;28;45384;-78
2022/03/08 01:29:40;;;;;;;;;38.25;32.75;;;;;6.86;46.17;101444.88;5078241;27;45401;-79
2022/03/08 01:32:06;;;;;;;;;40.50;33.25;;;;;6.88;46.31;101446.75;5077892;27;45369;-78
2022/03/08 01:34:34;;;;;;;;;45.75;38.50;;;;;6.77;46.42;101438.25;5076784;28;47482;-79
2022/03/08 01:37:01;;;;;;;;;43.25;36.25;;;;;6.76;46.25;101439.03;5078552;27;45251;-78
2022/03/08 01:39:26;;;;;;;;;38.00;36.00;;;;;6.82;46.19;101447.22;5076495;28;45363;-77
2022/03/08 01:41:52;;;;;;;;;40.50;34.00;;;;;6.81;46.63;101437.69;5078571;27;45350;-78
2022/03/08 01:44:19;;;;;;;;;41.50;34.75;;;;;6.76;46.38;101420.16;5077731;27;45533;-78
2022/03/08 01:46:45;;;;;;;;;42.50;31.75;;;;;6.79;46.48;101434.13;5078001;27;45345;-78
2022/03/08 01:49:10;;;;;;;;;34.75;26.75;;;;;6.73;46.51;101418.25;5076276;28;45458;-78
2022/03/08 01:51:39;;;;;;;;;41.00;36.25;;;;;6.74;46.75;101425.19;5078250;27;45484;-78
2022/03/08 01:54:09;;;;;;;;;44.50;35.00;;;;;6.79;46.57;101430.66;5077529;27;45287;-77
2022/03/08 01:56:35;;;;;;;;;45.25;38.50;;;;;6.73;46.39;101427.66;5080425;27;45331;-78
2022/03/08 01:59:02;;;;;;;;;39.00;35.00;;;;;6.73;46.46;101425.06;5078400;27;45359;-77
2022/03/08 02:01:28;;;;;;;;;39.75;33.00;;;;;6.68;46.43;101422.19;5077262;27;45449;-77
2022/03/08 02:03:54;;;;;;;;;42.25;36.00;;;;;6.68;46.95;101421.31;5078652;27;45476;-78
2022/03/08 02:06:20;;;;;;;;;40.50;37.00;;;;;6.66;46.85;101410.88;5097844;27;45629;-78
2022/03/08 02:08:46;;;;;;;;;37.25;35.00;;;;;6.66;46.81;101408.31;5096414;27;45480;-78
2022/03/08 02:11:12;;;;;;;;;37.25;35.00;;;;;6.72;46.59;101420.72;5093271;27;45481;-77
2022/03/08 02:13:38;;;;;;;;;37.50;35.50;;;;;6.70;46.64;101414.56;5077804;27;45290;-77
2022/03/08 02:16:05;;;;;;;;;40.50;36.00;;;;;6.68;46.63;101404.16;5077437;27;45789;-78
2022/03/08 02:18:32;;;;;;;;;39.75;35.00;;;;;6.57;46.61;101389.66;5077877;28;45363;-79
2022/03/08 02:21:08;;;;;;;;;35.75;32.50;;;;;6.65;47.16;101401.38;5078017;27;45385;-79
2022/03/08 02:23:35;;;;;;;;;39.75;36.25;;;;;6.65;47.04;101394.56;5084161;27;45403;-77
2022/03/08 02:26:01;;;;;;;;;44.25;34.50;;;;;6.70;47.18;101392.31;5097350;27;46007;-78
2022/03/08 02:28:29;;;;;;;;;44.75;37.50;;;;;6.71;46.84;101393.19;5097388;27;45555;-78
2022/03/08 02:30:55;;;;;;;;;33.00;33.00;;;;;6.69;46.71;101394.78;5095640;27;45472;-78
2022/03/08 02:33:21;;;;;;;;;35.50;32.00;;;;;6.63;46.90;101398.69;5083079;27;45530;-77
2022/03/08 02:35:47;;;;;;;;;41.00;32.25;;;;;6.63;47.00;101398.69;5076946;27;45355;-78
2022/03/08 02:38:12;;;;;;;;;33.50;31.75;;;;;6.68;46.93;101400.72;5077931;27;45446;-78
2022/03/08 02:40:40;;;;;;;;;39.25;33.50;;;;;6.69;47.21;101400.81;5077331;27;45460;-78
2022/03/08 02:43:08;;;;;;;;;44.00;36.00;;;;;6.69;47.13;101399.94;5091409;27;45441;-78
2022/03/08 02:45:34;;;;;;;;;44.50;35.75;;;;;6.63;47.05;101401.28;5095642;27;45274;-77
2022/03/08 02:48:00;;;;;;;;;39.75;35.75;;;;;6.55;47.11;101393.78;5077511;27;45260;-78
2022/03/08 02:50:26;;;;;;;;;44.25;36.00;;;;;6.50;47.55;101383.19;5093304;27;45344;-77
2022/03/08 02:52:55;;;;;;;;;38.25;33.00;;;;;6.54;47.23;101392.00;5097153;27;46245;-78
2022/03/08 02:55:25;;;;;;;;;38.25;36.00;;;;;6.54;47.86;101379.13;5092752;27;45838;-78
2022/03/08 02:57:51;;;;;;;;;37.25;32.75;;;;;6.38;47.90;101359.16;5077973;27;45476;-78
2022/03/08 03:00:19;;;;;;;;;46.25;36.00;;;;;6.48;47.62;101380.50;5077561;27;45507;-78
2022/03/08 03:02:45;;;;;;;;;41.75;37.00;;;;;6.50;47.57;101380.59;5078828;27;45504;-78
2022/03/08 03:05:12;;;;;;;;;40.25;34.50;;;;;6.44;47.70;101385.34;5076600;27;45370;-80
2022/03/08 03:07:39;;;;;;;;;43.00;37.50;;;;;6.40;47.27;101370.47;5075533;27;45244;-77
2022/03/08 03:10:09;;;;;;;;;44.00;35.00;;;;;6.35;47.82;101376.19;5079674;27;45659;-79
2022/03/08 03:12:35;;;;;;;;;41.75;36.25;;;;;6.30;48.29;101372.38;5075767;27;45510;-79
2022/03/08 03:15:02;;;;;;;;;37.00;34.25;;;;;6.15;48.32;101346.47;5075513;28;45315;-78
2022/03/08 03:17:28;;;;;;;;;43.25;34.50;;;;;6.31;48.27;101373.28;5076389;27;45258;-77
2022/03/08 03:19:53;;;;;;;;;42.75;36.75;;;;;6.30;48.26;101369.81;5083226;27;45758;-78
2022/03/08 03:22:19;;;;;;;;;48.75;36.25;;;;;6.22;48.51;101358.09;5096554;27;45923;-78
2022/03/08 03:24:45;;;;;;;;;36.75;31.00;;;;;6.13;48.11;101347.16;5084869;27;45318;-78
2022/03/08 03:27:10;;;;;;;;;39.00;33.25;;;;;6.16;49.05;101348.28;5076142;27;45468;-78
2022/03/08 03:29:36;;;;;;;;;42.75;35.50;;;;;6.24;48.86;101355.63;5077835;27;45513;-78
2022/03/08 03:32:02;;;;;;;;;42.75;35.75;;;;;6.20;49.17;101354.50;5077623;27;45418;-79
2022/03/08 03:34:27;;;;;;;;;54.00;36.75;;;;;6.16;48.95;101343.13;5079140;27;45844;-77
2022/03/08 03:36:53;;;;;;;;;43.25;36.50;;;;;6.19;48.96;101345.00;5096448;27;45393;-79
2022/03/08 03:39:19;;;;;;;;;40.25;34.25;;;;;6.21;48.50;101350.28;5095057;27;45476;-79
2022/03/08 03:41:44;;;;;;;;;39.50;35.25;;;;;6.21;49.35;101351.16;5095789;27;46258;-79
2022/03/08 03:44:10;;;;;;;;;41.50;35.50;;;;;6.17;49.00;101341.44;5089304;27;45472;-77
2022/03/08 03:46:36;;;;;;;;;45.25;36.75;;;;;6.21;48.97;101345.16;5087262;27;45488;-78
2022/03/08 03:49:02;;;;;;;;;44.50;37.50;;;;;6.13;48.98;101342.03;5078398;27;45301;-79
2022/03/08 03:51:28;;;;;;;;;42.25;36.00;;;;;5.98;49.04;101326.38;5084339;27;46229;-78
2022/03/08 03:53:54;;;;;;;;;39.00;35.50;;;;;6.11;49.11;101341.88;5094829;27;45454;-78
2022/03/08 03:56:20;;;;;;;;;37.75;33.25;;;;;6.12;49.43;101350.50;5095036;27;45390;-77
2022/03/08 03:58:45;;;;;;;;;43.00;34.50;;;;;6.14;49.21;101351.53;5079670;27;45619;-77
2022/03/08 04:01:11;;;;;;;;;52.25;38.25;;;;;6.10;49.40;101342.66;5090186;27;45408;-77
2022/03/08 04:03:36;;;;;;;;;40.50;34.50;;;;;6.14;49.51;101349.81;5076910;27;45421;-77
2022/03/08 04:06:02;;;;;;;;;39.25;33.50;;;;;6.12;49.84;101346.25;5076594;27;45441;-77
2022/03/08 04:08:28;;;;;;;;;12.50;6.75;;;;;6.14;49.39;101346.38;5083874;27;45556;-77
2022/03/08 04:10:53;;;;;;;;;38.00;34.00;;;;;6.02;49.22;101334.44;5094426;27;45370;-77
2022/03/08 04:13:19;;;;;;;;;41.75;34.25;;;;;6.01;50.08;101347.16;5080829;27;45297;-76
2022/03/08 04:15:45;;;;;;;;;44.75;37.00;;;;;5.96;50.01;101343.34;5081668;27;45291;-77
2022/03/08 04:18:12;;;;;;;;;45.75;33.75;;;;;5.97;50.43;101343.44;5096231;27;45447;-79
2022/03/08 04:20:38;;;;;;;;;34.75;29.50;;;;;5.89;50.12;101331.72;5094242;27;45776;-78
2022/03/08 04:23:03;;;;;;;;;47.25;33.25;;;;;5.99;50.62;101347.06;5096062;27;45449;-77
2022/03/08 04:25:29;;;;;;;;;38.25;32.75;;;;;5.94;50.25;101338.06;5094436;27;45399;-77
2022/03/08 04:27:55;;;;;;;;;41.75;34.00;;;;;5.95;49.96;101337.28;5080495;27;45489;-77
2022/03/08 04:30:21;;;;;;;;;45.00;33.75;;;;;5.95;50.71;101334.72;5078744;27;45419;-77
2022/03/08 04:32:47;;;;;;;;;42.50;35.25;;;;;6.03;50.71;101337.88;5079347;28;45296;-77
2022/03/08 04:35:13;;;;;;;;;38.75;36.50;;;;;5.95;49.93;101316.72;5079097;27;45431;-78
2022/03/08 04:37:39;;;;;;;;;43.50;37.25;;;;;6.02;50.17;101329.28;5082764;27;45242;-77
2022/03/08 04:40:06;;;;;;;;;41.25;35.75;;;;;6.04;49.90;101334.53;5078601;27;45885;-77
2022/03/08 04:42:32;;;;;;;;;40.75;34.75;;;;;6.06;49.97;101334.63;5080582;27;45185;-77
2022/03/08 04:44:57;;;;;;;;;45.00;37.50;;;;;6.02;50.11;101333.53;5091979;27;45284;-77
2022/03/08 04:47:23;;;;;;;;;41.00;36.25;;;;;5.94;50.10;101332.06;5082865;27;45967;-78
2022/03/08 04:49:49;;;;;;;;;44.50;37.50;;;;;5.86;50.18;101326.34;5088404;27;45472;-77
2022/03/08 04:52:14;;;;;;;;;44.50;36.00;;;;;5.82;50.18;101320.09;5093413;27;45452;-78
2022/03/08 04:54:40;;;;;;;;;48.00;37.00;;;;;5.80;50.76;101311.38;5088188;27;45428;-77
2022/03/08 04:57:06;;;;;;;;;38.75;32.50;;;;;5.85;50.64;101330.63;5081385;27;45620;-77
2022/03/08 04:59:32;;;;;;;;;37.25;34.25;;;;;5.79;50.31;101322.44;5080128;27;45507;-78
2022/03/08 05:01:57;;;;;;;;;39.25;35.00;;;;;5.85;51.02;101330.63;5096614;27;45403;-77
2022/03/08 05:04:23;;;;;;;;;46.25;37.25;;;;;5.69;50.91;101314.84;5097093;27;45496;-77
2022/03/08 05:06:49;;;;;;;;;35.75;32.25;;;;;5.78;50.99;101333.50;5098632;27;45364;-78
2022/03/08 05:09:14;;;;;;;;;38.00;37.50;;;;;5.74;50.90;101324.69;5093565;27;45809;-77
2022/03/08 05:11:40;;;;;;;;;37.50;31.25;;;;;5.77;51.11;101328.25;5078209;28;45311;-79
2022/03/08 05:14:05;;;;;;;;;41.75;36.50;;;;;5.84;50.46;101326.25;5082402;27;45288;-77
2022/03/08 05:16:31;;;;;;;;;38.75;32.50;;;;;5.80;50.96;101319.09;5078792;28;45425;-79
2022/03/08 05:18:57;;;;;;;;;36.75;31.00;;;;;5.88;50.93;101330.81;5078275;27;45298;-77
2022/03/08 05:21:23;;;;;;;;;43.50;36.50;;;;;5.86;50.51;101324.69;5077861;28;45764;-78
2022/03/08 05:23:49;;;;;;;;;40.50;33.50;;;;;5.80;51.23;101310.50;5078498;27;45459;-77
2022/03/08 05:26:15;;;;;;;;;47.25;39.00;;;;;5.77;50.78;101308.63;5078064;28;45321;-78
2022/03/08 05:28:43;;;;;;;;;45.50;37.25;;;;;5.83;51.06;101314.19;5078134;27;45948;-78
2022/03/08 05:31:13;;;;;;;;;42.25;37.00;;;;;5.88;50.76;101320.53;5076576;28;45774;-78
2022/03/08 05:33:39;;;;;;;;;47.00;36.25;;;;;5.86;50.98;101308.38;5077783;27;45371;-78
2022/03/08 05:36:06;;;;;;;;;47.75;39.25;;;;;5.88;51.07;101317.09;5077740;27;45389;-77
2022/03/08 05:38:31;;;;;;;;;38.75;32.75;;;;;5.88;51.10;101311.94;5076667;27;46276;-77
2022/03/08 05:40:57;;;;;;;;;48.00;37.75;;;;;5.93;51.35;101323.47;5092983;27;45354;-77
2022/03/08 05:43:23;;;;;;;;;46.00;32.25;;;;;5.88;50.72;101309.38;5086563;27;45351;-77
2022/03/08 05:45:49;;;;;;;;;46.00;34.25;;;;;5.88;51.01;101315.41;5098512;27;45381;-77
2022/03/08 05:48:14;;;;;;;;;47.25;36.75;;;;;5.86;50.76;101314.41;5082813;27;45883;-77
2022/03/08 05:50:40;;;;;;;;;42.75;34.25;;;;;5.76;50.98;101313.63;5089951;27;45499;-79
2022/03/08 05:53:06;;;;;;;;;50.00;38.50;;;;;5.77;51.57;101320.56;5097628;27;45258;-77
2022/03/08 05:55:32;;;;;;;;;43.00;36.75;;;;;5.77;51.20;101316.34;5078400;28;45521;-77
2022/03/08 05:57:57;;;;;;;;;52.50;39.50;;;;;5.80;51.13;101321.66;5078496;27;45349;-78
2022/03/08 06:00:23;;;;;;;;;49.50;40.50;;;;;5.78;51.49;101317.22;5081536;27;45385;-77
2022/03/08 06:02:48;;;;;;;;;53.50;38.25;;;;;5.81;51.58;101331.16;5090091;27;45863;-77
2022/03/08 06:05:14;;;;;;;;;55.25;40.75;;;;;5.76;51.47;101322.25;5095078;27;45535;-77
2022/03/08 06:07:40;;;;;;;;;46.25;38.25;;;;;5.78;51.11;101330.94;5097400;27;45581;-78
2022/03/08 06:10:08;;;;;;;;;47.25;39.75;;;;;5.79;51.61;101337.88;5094456;27;45366;-77
2022/03/08 06:12:34;;;;;;;;;41.25;35.75;;;;;5.80;51.42;101328.50;5088421;27;45417;-77
2022/03/08 06:15:00;;;;;;;;;41.25;35.25;;;;;5.74;51.41;101319.53;5093023;27;45467;-77
2022/03/08 06:17:26;;;;;;;;;46.25;37.00;;;;;5.74;51.96;101316.97;5077235;27;45354;-78
2022/03/08 06:19:52;;;;;;;;;46.50;36.50;;;;;5.80;51.58;101333.63;5076255;27;45376;-78
2022/03/08 06:22:18;;;;;;;;;47.00;37.25;;;;;5.76;51.95;101329.97;5076543;27;45413;-78
2022/03/08 06:24:44;;;;;;;;;42.50;37.00;;;;;5.69;51.75;101323.47;5078966;27;45660;-78
2022/03/08 06:27:10;;;;;;;;;50.75;38.50;;;;;5.77;51.55;101344.59;5079003;27;45479;-77
2022/03/08 06:29:36;;;;;;;;;46.00;38.00;;;;;5.68;51.80;101331.06;5076406;27;45941;-78
2022/03/08 06:32:02;;;;;;;;;41.25;36.50;;;;;5.62;51.99;101331.50;5074962;27;45448;-77
2022/03/08 06:34:28;;;;;;;;;42.50;35.25;;;;;5.63;52.22;101330.72;5076572;27;45418;-79
2022/03/08 06:36:54;;;;;;;;;46.75;38.00;;;;;5.64;51.99;101323.91;5076045;27;46257;-77
2022/03/08 06:39:20;;;;;;;;;23.25;16.75;;;;;5.73;52.44;101340.88;5075561;27;45292;-78
2022/03/08 06:41:45;;;;;;;;;45.50;38.50;;;;;5.69;52.38;101330.28;5074685;28;45250;-79
2022/03/08 06:44:11;;;;;;;;;47.25;36.75;;;;;5.70;52.48;101338.09;5076318;27;45203;-78
2022/03/08 06:46:41;;;;;;;;;39.50;32.50;;;;;5.73;52.71;101337.44;5076174;27;45447;-79
2022/03/08 06:49:08;;;;;;;;;38.00;34.25;;;;;5.69;52.05;101340.53;5076190;27;45997;-80
2022/03/08 06:51:35;;;;;;;;;45.25;36.75;;;;;5.65;52.45;101336.88;5077648;27;45432;-81
2022/03/08 06:54:01;;;;;;;;;54.75;40.50;;;;;5.55;52.84;101311.28;5077120;27;45579;-80
2022/03/08 06:56:26;;;;;;;;;47.25;39.75;;;;;5.71;52.58;101344.13;5082846;27;46051;-80
2022/03/08 06:58:52;;;;;;;;;42.00;36.75;;;;;5.72;52.65;101351.94;5077639;27;45185;-80
2022/03/08 07:01:18;;;;;;;;;45.00;32.50;;;;;5.70;53.22;101347.47;5094930;27;45265;-83
2022/03/08 07:03:43;;;;;;;;;48.25;36.75;;;;;5.76;52.66;101353.09;5089218;27;45801;-84
2022/03/08 07:06:10;;;;;;;;;55.75;41.00;;;;;5.79;52.99;101347.25;5080965;27;48108;-86
2022/03/08 07:08:37;;;;;;;;;47.75;39.75;;;;;5.74;53.23;101328.94;5061466;28;45814;-83
2022/03/08 07:11:04;;;;;;;;;52.00;41.50;;;;;5.82;53.32;101343.22;5078315;27;45347;-81
2022/03/08 07:13:30;;;;;;;;;51.25;40.00;;;;;5.84;52.93;101340.75;5078679;27;46915;-86
2022/03/08 07:15:56;;;;;;;;;50.50;40.50;;;;;5.73;52.93;101322.91;5076220;27;45289;-87
2022/03/08 07:18:23;;;;;;;;;45.00;38.75;;;;;5.87;53.14;101336.75;5076751;27;45590;-80
2022/03/08 07:20:49;;;;;;;;;57.25;43.00;;;;;5.86;52.72;101334.97;5074994;27;45736;-79
2022/03/08 07:23:15;;;;;;;;;41.50;37.00;;;;;5.86;53.00;101331.50;5077405;27;45410;-79
2022/03/08 07:25:41;;;;;;;;;53.50;41.00;;;;;5.62;52.96;101298.09;5085371;27;45599;-81
2022/03/08 07:28:07;;;;;;;;;54.50;42.75;;;;;5.93;53.47;101343.13;5084021;27;45450;-81
2022/03/08 07:30:34;;;;;;;;;52.25;41.00;;;;;5.76;53.45;101311.06;5083227;27;45542;-78
2022/03/08 07:33:00;;;;;;;;;53.25;40.00;;;;;5.94;53.13;101339.75;5078343;27;45355;-80
2022/03/08 07:35:25;;;;;;;;;55.50;41.00;;;;;6.00;53.38;101348.84;5076066;27;45678;-78
2022/03/08 07:37:51;;;;;;;;;48.00;40.00;;;;;6.02;52.92;101357.56;5080054;27;45451;-79
2022/03/08 07:40:17;;;;;;;;;60.50;46.25;;;;;6.02;52.88;101355.00;5081084;27;45492;-80
2022/03/08 07:42:42;;;;;;;;;73.50;56.25;;;;;5.99;52.93;101361.56;5080566;27;45409;-86
2022/03/08 07:45:09;;;;;;;;;61.75;49.00;;;;;6.00;52.98;101368.50;5077625;27;45864;-80
2022/03/08 07:47:34;;;;;;;;;63.50;50.50;;;;;5.88;53.04;101356.50;5081523;27;45906;-81
2022/03/08 07:50:00;;;;;;;;;60.25;47.25;;;;;6.01;52.95;101370.28;5087748;27;45325;-82
2022/03/08 07:52:26;;;;;;;;;61.50;44.50;;;;;6.05;53.17;101367.16;5085114;27;45298;-80
2022/03/08 07:54:51;;;;;;;;;52.75;42.75;;;;;6.08;52.95;101367.41;5074567;28;45866;-80
2022/03/08 07:57:18;;;;;;;;;52.00;39.75;;;;;6.14;52.87;101369.53;5076128;28;45290;-80
2022/03/08 07:59:44;;;;;;;;;50.75;40.25;;;;;6.18;52.42;101369.84;5080647;28;45440;-79
2022/03/08 08:02:10;;;;;;;;;52.75;42.00;;;;;6.19;52.81;101366.50;5082358;28;45359;-80
2022/03/08 08:04:35;;;;;;;;;58.75;44.00;;;;;6.18;52.46;101357.00;5079734;28;45582;-81
2022/03/08 08:07:01;;;;;;;;;52.00;42.00;;;;;6.23;52.75;101366.69;5079935;28;45337;-81
2022/03/08 08:09:26;;;;;;;;;43.25;37.00;;;;;6.24;52.25;101373.63;5078674;27;45411;-80
2022/03/08 08:11:52;;;;;;;;;56.50;43.00;;;;;6.19;52.56;101357.88;5079125;28;45232;-80
2022/03/08 08:14:19;;;;;;;;;57.25;40.75;;;;;6.13;52.71;101336.88;5079119;27;46160;-86
2022/03/08 08:16:45;;;;;;;;;60.00;43.75;;;;;6.29;52.33;101368.03;5079862;27;45357;-77
2022/03/08 08:19:11;;;;;;;;;51.50;41.25;;;;;6.34;52.97;101364.13;5078862;27;45574;-84
2022/03/08 08:21:37;;;;;;;;;54.50;43.25;;;;;6.37;52.67;101342.84;5078520;27;45551;-77
2022/03/08 08:24:04;;;;;;;;;50.50;40.75;;;;;6.41;52.06;101352.59;5078624;27;45813;-78
2022/03/08 08:26:30;;;;;;;;;53.00;36.75;;;;;6.57;51.46;101359.69;5078940;27;45267;-77
2022/03/08 08:28:55;;;;;;;;;50.00;41.00;;;;;6.55;51.37;101350.06;5077677;28;45254;-79
2022/03/08 08:31:23;;;;;;;;;56.25;40.00;;;;;6.71;51.29;101367.44;5077310;28;45473;-79
2022/03/08 08:33:49;;;;;;;;;47.00;39.25;;;;;6.69;50.66;101356.19;5079027;27;45812;-79
2022/03/08 08:36:15;;;;;;;;;52.25;41.50;;;;;6.80;50.57;101368.13;5078568;27;45983;-79
2022/03/08 08:38:41;;;;;;;;;55.75;41.75;;;;;6.81;50.57;101367.31;5078501;28;45368;-79
2022/03/08 08:41:06;;;;;;;;;48.50;41.25;;;;;6.82;50.52;101370.00;5078680;27;45585;-78
2022/03/08 08:43:32;;;;;;;;;48.00;38.75;;;;;6.81;50.57;101363.06;5078639;27;46020;-79
2022/03/08 08:45:57;;;;;;;;;54.75;41.00;;;;;6.92;50.33;101374.09;5078472;27;45412;-79
2022/03/08 08:48:24;;;;;;;;;47.75;38.00;;;;;6.94;50.48;101377.66;5078027;27;45411;-80
2022/03/08 08:50:49;;;;;;;;;52.75;43.00;;;;;6.99;50.27;101379.66;5078614;27;45231;-79
2022/03/08 08:53:15;;;;;;;;;58.25;44.50;;;;;7.00;50.52;101382.34;5077814;27;46058;-80
2022/03/08 08:55:40;;;;;;;;;58.75;45.00;;;;;7.01;50.39;101372.94;5078054;27;45341;-79
2022/03/08 08:58:06;;;;;;;;;45.50;38.00;;;;;7.06;50.31;101372.47;5078291;27;45432;-79
2022/03/08 09:00:33;;;;;;;;;58.50;43.75;;;;;7.09;50.12;101379.50;5078607;27;45756;-78
2022/03/08 09:02:59;;;;;;;;;59.25;46.00;;;;;7.16;50.46;101380.81;5078421;27;47080;-78
2022/03/08 09:05:25;;;;;;;;;55.25;45.75;;;;;7.18;50.46;101376.69;5076440;27;45386;-79
2022/03/08 09:07:50;;;;;;;;;50.25;40.75;;;;;7.13;50.28;101353.16;5076975;27;45414;-86
2022/03/08 09:10:19;;;;;;;;;60.00;46.50;;;;;7.22;50.52;101363.19;5077467;27;45329;-77
2022/03/08 09:12:49;;;;;;;;;11.75;3.50;;;;;7.22;50.16;101361.53;5077328;27;45517;-77
2022/03/08 09:15:15;;;;;;;;;52.25;41.00;;;;;7.31;50.24;101365.50;5077737;27;45950;-78
2022/03/08 09:17:41;;;;;;;;;54.50;42.00;;;;;7.35;50.15;101375.19;5078047;28;45309;-78
2022/03/08 09:20:08;;;;;;;;;51.25;39.00;;;;;7.27;50.39;101349.84;5076438;28;45650;-79
2022/03/08 09:22:33;;;;;;;;;53.25;40.00;;;;;7.38;50.22;101366.03;5077926;27;45448;-78
2022/03/08 09:24:59;;;;;;;;;55.25;43.25;;;;;7.45;50.29;101367.28;5077141;27;45372;-77
2022/03/08 09:27:24;;;;;;;;;54.00;40.50;;;;;7.47;49.73;101358.00;5077140;27;45468;-77
2022/03/08 09:29:50;;;;;;;;;53.50;38.00;;;;;7.55;50.10;101353.34;5078113;27;45314;-78
2022/03/08 09:32:16;;;;;;;;;51.00;40.50;;;;;7.57;50.04;101344.03;5077267;27;45215;-79
2022/03/08 09:34:41;;;;;;;;;56.50;41.50;;;;;7.60;50.03;101349.41;5077100;27;45379;-79
2022/03/08 09:37:08;;;;;;;;;52.50;39.50;;;;;7.66;50.16;101357.53;5077001;27;45254;-78
2022/03/08 09:39:37;;;;;;;;;47.25;38.25;;;;;7.65;50.21;101340.28;5077988;27;45571;-78
2022/03/08 09:42:04;;;;;;;;;51.25;41.50;;;;;7.73;49.97;101343.34;5077662;27;46660;-78
2022/03/08 09:44:30;;;;;;;;;63.50;46.00;;;;;7.72;50.02;101342.44;5077641;27;45879;-78
2022/03/08 09:46:56;;;;;;;;;53.50;41.00;;;;;7.78;50.07;101347.09;5077093;27;45330;-78
2022/03/08 09:49:21;;;;;;;;;61.00;47.00;;;;;7.86;49.91;101351.09;5075760;28;45956;-77
2022/03/08 09:51:47;;;;;;;;;58.25;45.25;;;;;7.86;49.82;101353.66;5076563;27;46175;-77
2022/03/08 09:54:14;;;;;;;;;61.50;43.50;;;;;7.85;50.08;101343.25;5077018;27;45265;-77
2022/03/08 09:56:39;;;;;;;;;55.25;42.25;;;;;7.95;49.99;101353.34;5076975;28;45523;-78
2022/03/08 09:59:05;;;;;;;;;55.75;44.25;;;;;7.97;49.89;101343.16;5075607;28;45468;-77
2022/03/08 10:01:31;;;;;;;;;55.50;45.00;;;;;8.03;49.92;101346.09;5076754;27;45322;-77
2022/03/08 10:03:57;;;;;;;;;56.75;44.50;;;;;8.05;49.94;101340.25;5075612;27;45289;-78
2022/03/08 10:06:22;;;;;;;;;60.25;44.75;;;;;8.11;50.01;101334.59;5076278;28;45406;-77
2022/03/08 10:08:48;;;;;;;;;58.75;46.75;;;;;8.15;49.81;101335.69;5076990;27;45577;-77
2022/03/08 10:11:15;;;;;;;;;56.50;44.25;;;;;8.23;49.76;101339.66;5076334;27;46065;-78
2022/03/08 10:13:46;;;;;;;;;63.00;48.75;;;;;8.21;49.24;101329.22;5076401;27;45972;-78
2022/03/08 10:16:15;;;;;;;;;61.25;47.00;;;;;8.26;49.20;101341.50;5073533;28;45321;-79
2022/03/08 10:18:49;;;;;;;;;62.00;47.50;;;;;8.21;48.77;101346.38;5076453;27;45559;-79
2022/03/08 10:21:28;;;;;;;;;55.25;45.00;;;;;8.17;49.55;101337.56;5072804;28;45422;-79
2022/03/08 10:23:55;;;;;;;;;60.00;45.25;;;;;8.17;49.77;101329.84;5075576;28;45413;-78
2022/03/08 10:26:21;;;;;;;;;58.00;45.75;;;;;8.14;49.64;101303.84;5075302;27;45508;-81
2022/03/08 10:28:51;;;;;;;;;56.75;46.00;;;;;8.23;50.02;101318.09;5076130;27;45502;-79
2022/03/08 10:31:17;;;;;;;;;58.00;45.50;;;;;8.18;50.08;101303.25;5068063;27;45258;-77
2022/03/08 10:33:46;;;;;;;;;59.25;45.25;;;;;8.28;50.28;101314.13;5076583;28;45269;-78
2022/03/08 10:36:21;;;;;;;;;59.00;45.50;;;;;8.36;50.00;101324.16;5073314;27;45484;-77
2022/03/08 10:39:08;;;;;;;;;55.75;44.00;;;;;8.40;50.00;101319.16;5076536;27;45530;-78
2022/03/08 10:41:51;;;;;;;;;63.00;45.00;;;;;8.36;49.98;101298.34;5075878;27;46579;-78
2022/03/08 10:44:34;;;;;;;;;58.25;46.75;;;;;8.54;50.01;101313.19;5069774;27;46039;-78
2022/03/08 10:47:02;;;;;;;;;61.25;44.00;;;;;8.60;49.79;101316.13;5074626;28;45805;-78
2022/03/08 10:49:28;;;;;;;;;63.50;47.75;;;;;8.69;49.55;101309.78;5075017;28;45453;-79
2022/03/08 10:52:05;;;;;;;;;56.75;45.50;;;;;8.68;49.58;101293.38;5076455;28;46217;-79
2022/03/08 10:54:33;;;;;;;;;61.75;47.75;;;;;8.79;49.76;101300.06;5076997;27;45396;-78
2022/03/08 10:57:00;;;;;;;;;55.50;43.75;;;;;8.77;49.92;101287.88;5075040;27;45693;-78
2022/03/08 10:59:26;;;;;;;;;56.25;45.25;;;;;8.83;50.12;101296.88;5074834;27;45419;-76
2022/03/08 11:01:52;;;;;;;;;59.75;44.25;;;;;8.76;50.09;101271.47;5074943;28;47396;-79
2022/03/08 11:04:23;;;;;;;;;61.25;47.75;;;;;8.95;50.34;101283.78;5074686;27;45428;-78
2022/03/08 11:06:55;;;;;;;;;59.25;45.25;;;;;9.00;50.06;101276.31;5075186;27;45481;-78
2022/03/08 11:09:22;;;;;;;;;61.00;47.75;;;;;9.01;50.05;101269.47;5076418;28;45424;-79
2022/03/08 11:11:48;;;;;;;;;61.75;48.00;;;;;9.09;49.79;101268.22;5076113;28;46612;-77
2022/03/08 11:14:14;;;;;;;;;54.50;45.00;;;;;9.19;49.96;101279.97;5075643;28;45399;-77